Date,TemperatureHighF,TemperatureAvgF,TemperatureLowF,DewpointHighF,DewpointAvgF,DewpointLowF,HumidityHigh,HumidityAvg,HumidityLow,PressureMaxIn,PressureMinIn,WindSpeedMaxMPH,WindSpeedAvgMPH,GustSpeedMaxMPH,PrecipitationSumIn
2013-12-1,59,56,54,46,45,43,74,67,59,29.82,29.61,69,40,69,0.05
2013-12-2,59,56,54,55,52,48,88,85,80,30.14,29.94,29,6,29,0.71
2013-12-3,58,55,50,49,40,36,82,58,48,30.25,30.09,47,24,47,0.04
2013-12-4,59,51,44,42,38,36,79,63,46,30.26,30.19,23,5,23,0.00
2013-12-5,58,48,40,46,41,35,88,78,63,30.22,30.15,7,1,7,0.00
2013-12-6,56,50,46,47,43,39,88,79,62,30.15,29.96,10,1,10,0.00
2013-12-7,60,51,42,43,40,37,82,66,46,30.35,30.00,20,5,20,0.00
2013-12-8,58,50,43,48,43,37,83,75,65,30.44,30.33,8,1,8,0.00
2013-12-9,59,53,50,51,48,44,86,81,74,30.45,30.39,9,1,9,0.07
2013-12-10,60,53,50,47,46,40,86,77,52,30.53,30.41,25,2,25,0.00
2013-12-11,62,53,48,44,42,39,76,66,49,30.55,30.49,14,3,14,0.00
2013-12-12,59,51,45,46,42,38,83,72,60,30.52,30.36,13,3,13,0.00
2013-12-13,57,50,44,46,43,39,86,77,65,30.35,30.26,10,2,10,0.00
2013-12-14,57,47,39,46,41,36,89,80,62,30.43,30.30,7,1,7,0.00
2013-12-15,55,48,44,48,42,37,86,78,67,30.49,30.40,12,2,12,0.01
2013-12-16,59,50,44,41,37,32,76,63,48,30.55,30.47,12,3,12,0.00
2013-12-17,62,50,44,40,36,33,68,58,41,30.53,30.41,13,3,13,0.00
2013-12-18,58,48,40,42,38,34,83,70,45,30.41,30.29,12,2,12,0.00
2013-12-19,57,47,40,46,41,35,85,78,66,30.31,30.22,7,1,7,0.00
2013-12-20,61,53,47,46,43,41,81,70,55,30.50,30.23,13,4,13,0.00
2013-12-21,61,53,47,44,42,40,81,66,51,30.60,30.49,16,6,16,0.00
2013-12-22,59,50,44,43,40,37,80,68,52,30.57,30.42,12,3,12,0.00
2013-12-23,58,49,40,43,39,35,84,69,56,30.42,30.26,14,3,14,0.00
2013-12-24,58,49,44,42,39,36,80,67,55,30.26,30.15,14,4,14,0.00
2013-12-25,59,50,42,50,44,36,85,79,70,30.15,29.78,16,2,16,0.00
2013-12-26,58,52,47,53,48,44,91,85,74,29.78,29.44,30,8,30,0.79
2013-12-27,56,49,44,48,45,42,92,86,68,29.93,29.53,8,2,8,0.09
2013-12-28,59,51,46,45,43,40,86,74,55,30.09,29.93,13,4,13,0.01
2013-12-29,59,52,46,50,48,42,89,85,71,30.16,30.08,7,1,7,0.01
2013-12-30,58,54,51,50,48,46,90,80,69,30.15,30.08,15,6,15,0.01
2013-12-31,59,54,50,47,44,42,76,68,61,30.10,30.04,26,8,26,0.00